Time;durP1;ratioP1;P1;durP2;ratioP2;P2;SDS_P1;SDS_P2;PMS_P1;PMS_P2;Temp;Humidity;BMP_temperature;BMP_pressure;BME280_temperature;BME280_humidity;BME280_pressure;Samples;Min_cycle;Max_cycle;Signal;HPM_P1;HPM_P2
2023/08/21 00:00:23;;;;;;;0.13;0.13;;;17.00;99.90;;;;;;5053364;28;20075;-76
2023/08/21 00:02:48;;;;;;;0.20;0.20;;;17.00;99.90;;;;;;5067017;28;20137;-76
2023/08/21 00:05:14;;;;;;;0.10;0.10;;;17.00;99.90;;;;;;5053902;28;20396;-76
2023/08/21 00:07:40;;;;;;;0.20;0.20;;;17.00;99.90;;;;;;5052525;28;20522;-76
2023/08/21 00:10:06;;;;;;;0.20;0.20;;;17.00;99.90;;;;;;5053547;28;20044;-76
2023/08/21 00:12:32;;;;;;;0.20;0.20;;;17.00;99.90;;;;;;5052792;28;20114;-76
2023/08/21 00:14:57;;;;;;;0.10;0.10;;;16.90;99.90;;;;;;5051294;28;20166;-76
2023/08/21 00:17:23;;;;;;;0.20;0.20;;;16.90;99.90;;;;;;5070132;28;20044;-76
2023/08/21 00:19:49;;;;;;;0.20;0.20;;;16.90;99.90;;;;;;5054169;28;20048;-76
2023/08/21 00:22:15;;;;;;;0.20;0.20;;;16.90;99.90;;;;;;5069253;28;20094;-76
2023/08/21 00:24:40;;;;;;;0.20;0.20;;;16.90;99.90;;;;;;5053054;28;20040;-76
2023/08/21 00:27:06;;;;;;;0.20;0.20;;;16.80;99.90;;;;;;5053328;28;20044;-76
2023/08/21 00:29:32;;;;;;;0.20;0.20;;;16.80;99.90;;;;;;5068528;28;20090;-76
2023/08/21 00:31:57;;;;;;;0.20;0.20;;;16.80;99.90;;;;;;5048342;28;20517;-76
2023/08/21 00:34:23;;;;;;;0.20;0.20;;;16.80;99.90;;;;;;5066662;28;20032;-76
2023/08/21 00:36:49;;;;;;;0.20;0.20;;;16.70;99.90;;;;;;5051488;28;20040;-76
2023/08/21 00:39:15;;;;;;;0.20;0.20;;;16.70;99.90;;;;;;5071027;28;20039;-76
2023/08/21 00:41:40;;;;;;;0.10;0.10;;;16.60;99.90;;;;;;5070084;28;20063;-76
2023/08/21 00:44:06;;;;;;;0.10;0.10;;;16.60;99.90;;;;;;5052296;28;20067;-76
2023/08/21 00:46:32;;;;;;;0.13;0.13;;;16.60;99.90;;;;;;5048928;28;20480;-77
2023/08/21 00:48:58;;;;;;;0.20;0.20;;;16.60;99.90;;;;;;5069974;28;20455;-76
2023/08/21 00:51:24;;;;;;;0.10;0.10;;;16.60;99.90;;;;;;5047543;28;20035;-76
2023/08/21 00:53:50;;;;;;;0.20;0.20;;;16.50;99.90;;;;;;5069917;28;20128;-76
2023/08/21 00:56:16;;;;;;;0.10;0.10;;;16.50;99.90;;;;;;5065018;28;20115;-76
2023/08/21 00:58:42;;;;;;;0.20;0.20;;;16.50;99.90;;;;;;5065585;28;20106;-76
2023/08/21 01:01:08;;;;;;;0.25;0.25;;;16.50;99.90;;;;;;5063704;28;20045;-76
2023/08/21 01:03:34;;;;;;;0.20;0.20;;;16.40;99.90;;;;;;5048100;28;20079;-76
2023/08/21 01:06:00;;;;;;;0.13;0.13;;;16.40;99.90;;;;;;5068970;28;20075;-76
2023/08/21 01:08:59;;;;;;;0.17;0.17;;;16.40;99.90;;;;;;5071213;28;20033;-76
2023/08/21 01:11:36;;;;;;;0.15;0.15;;;16.40;99.90;;;;;;5034767;28;20106;-76
2023/08/21 01:14:35;;;;;;;0.20;0.20;;;16.40;99.90;;;;;;5032864;28;20063;-76
2023/08/21 01:17:04;;;;;;;0.20;0.20;;;16.40;99.90;;;;;;5031137;28;20047;-77
2023/08/21 01:19:43;;;;;;;0.20;0.20;;;16.30;99.90;;;;;;5046503;28;20124;-76
2023/08/21 01:22:08;;;;;;;0.13;0.13;;;16.30;99.90;;;;;;5048434;28;20044;-77
2023/08/21 01:24:34;;;;;;;0.10;0.10;;;16.30;99.90;;;;;;5046787;28;20484;-76
2023/08/21 01:27:01;;;;;;;0.10;0.10;;;16.30;99.90;;;;;;5067614;28;20044;-76
2023/08/21 01:29:27;;;;;;;0.20;0.20;;;16.30;99.90;;;;;;5052196;28;20046;-77
2023/08/21 01:32:13;;;;;;;0.10;0.10;;;16.30;99.90;;;;;;5067336;28;20387;-76
2023/08/21 01:34:40;;;;;;;0.20;0.20;;;16.30;99.90;;;;;;5052152;28;20052;-77
2023/08/21 01:37:07;;;;;;;0.10;0.10;;;16.30;99.90;;;;;;5050908;28;20442;-77
2023/08/21 01:39:33;;;;;;;0.10;0.10;;;16.20;99.90;;;;;;5049836;28;20055;-76
2023/08/21 01:41:59;;;;;;;0.20;0.20;;;16.20;99.90;;;;;;5048261;28;20052;-76
2023/08/21 01:44:26;;;;;;;0.20;0.20;;;16.20;99.90;;;;;;5047211;28;20120;-77
2023/08/21 01:46:53;;;;;;;0.20;0.20;;;16.10;99.90;;;;;;5068212;28;20119;-76
2023/08/21 01:49:19;;;;;;;0.20;0.20;;;16.10;99.90;;;;;;5067565;28;20124;-76
2023/08/21 01:51:46;;;;;;;0.20;0.20;;;16.00;99.90;;;;;;5068825;28;20072;-77
2023/08/21 01:54:11;;;;;;;0.20;0.20;;;16.00;99.90;;;;;;5050359;28;20080;-77
2023/08/21 01:56:37;;;;;;;0.20;0.20;;;16.00;99.90;;;;;;5051043;28;20080;-76
2023/08/21 01:59:06;;;;;;;0.10;0.10;;;16.00;99.90;;;;;;5068692;28;20116;-76
2023/08/21 02:01:32;;;;;;;0.10;0.10;;;16.00;99.90;;;;;;5048789;28;20055;-76
2023/08/21 02:03:57;;;;;;;0.20;0.20;;;15.90;99.90;;;;;;5047919;28;20064;-77
2023/08/21 02:06:23;;;;;;;0.20;0.20;;;15.90;99.90;;;;;;5063311;28;20040;-76
2023/08/21 02:08:49;;;;;;;0.20;0.20;;;15.90;99.90;;;;;;5066567;28;20028;-77
2023/08/21 02:11:14;;;;;;;0.20;0.20;;;15.90;99.90;;;;;;5048199;28;20036;-77
2023/08/21 02:13:40;;;;;;;0.15;0.15;;;15.90;99.90;;;;;;5068068;28;20045;-77
2023/08/21 02:16:06;;;;;;;0.20;0.20;;;;;;;;;;5049998;28;20057;-76
2023/08/21 02:18:32;;;;;;;0.20;0.20;;;15.90;99.90;;;;;;5049058;28;20037;-76
2023/08/21 02:21:00;;;;;;;0.15;0.15;;;15.90;99.90;;;;;;5066870;28;20399;-76
2023/08/21 02:23:25;;;;;;;0.10;0.10;;;15.90;99.90;;;;;;5068693;28;20076;-76
2023/08/21 02:25:51;;;;;;;0.13;0.13;;;15.90;99.90;;;;;;5051356;28;20432;-76
2023/08/21 02:28:17;;;;;;;0.17;0.17;;;15.90;99.90;;;;;;5066852;28;20041;-76
2023/08/21 02:30:43;;;;;;;0.20;0.20;;;15.90;99.90;;;;;;5050120;28;20051;-76
2023/08/21 02:33:09;;;;;;;0.20;0.20;;;15.90;99.90;;;;;;5053779;28;20040;-76
2023/08/21 02:35:34;;;;;;;0.20;0.20;;;15.90;99.90;;;;;;5071624;28;20094;-76
2023/08/21 02:38:00;;;;;;;0.10;0.10;;;15.90;99.90;;;;;;5072004;28;20448;-77
2023/08/21 02:40:25;;;;;;;0.10;0.10;;;15.80;99.90;;;;;;5072120;28;20476;-77
2023/08/21 02:42:51;;;;;;;0.22;0.22;;;15.80;99.90;;;;;;5053338;28;20052;-76
2023/08/21 02:45:18;;;;;;;0.17;0.17;;;15.80;99.90;;;;;;5071659;28;20044;-76
2023/08/21 02:47:45;;;;;;;0.10;0.10;;;15.80;99.90;;;;;;5055260;28;20044;-77
2023/08/21 02:50:10;;;;;;;0.20;0.20;;;15.80;99.90;;;;;;5051765;28;20041;-76
2023/08/21 02:52:36;;;;;;;0.20;0.20;;;15.80;99.90;;;;;;5050917;28;20568;-76
2023/08/21 02:55:03;;;;;;;0.10;0.10;;;15.80;99.90;;;;;;5055332;28;20571;-77
2023/08/21 02:57:29;;;;;;;0.20;0.20;;;15.70;99.90;;;;;;5053902;28;20048;-76
2023/08/21 02:59:55;;;;;;;0.20;0.20;;;15.70;99.90;;;;;;5050162;28;20595;-76
2023/08/21 03:02:21;;;;;;;0.20;0.20;;;15.70;99.90;;;;;;5069119;28;20097;-76
2023/08/21 03:04:48;;;;;;;0.20;0.20;;;15.70;99.90;;;;;;5054627;28;20094;-76
2023/08/21 03:07:14;;;;;;;0.20;0.20;;;15.70;99.90;;;;;;5054908;28;20040;-77
2023/08/21 03:09:40;;;;;;;0.20;0.20;;;15.70;99.90;;;;;;5051858;28;20037;-77
2023/08/21 03:12:06;;;;;;;0.20;0.20;;;15.70;99.90;;;;;;5049995;28;20525;-77
2023/08/21 03:14:32;;;;;;;0.10;0.10;;;15.70;99.90;;;;;;5067515;28;20507;-76
2023/08/21 03:16:58;;;;;;;0.20;0.20;;;15.70;99.90;;;;;;5049987;28;20056;-76
2023/08/21 03:19:23;;;;;;;0.13;0.13;;;15.70;99.90;;;;;;5072265;28;20040;-77
2023/08/21 03:21:49;;;;;;;0.20;0.20;;;15.70;99.90;;;;;;5071927;28;20037;-77
2023/08/21 03:24:15;;;;;;;0.20;0.20;;;15.70;99.90;;;;;;5052636;28;20032;-76
2023/08/21 03:26:40;;;;;;;0.20;0.20;;;15.60;99.90;;;;;;5070272;28;20293;-76
2023/08/21 03:29:06;;;;;;;0.20;0.20;;;15.60;99.90;;;;;;5072006;28;20029;-76
2023/08/21 03:31:32;;;;;;;0.15;0.15;;;15.60;99.90;;;;;;5070381;28;20385;-76
2023/08/21 03:33:58;;;;;;;0.17;0.17;;;15.60;99.90;;;;;;5071767;28;20040;-77
2023/08/21 03:36:33;;;;;;;0.20;0.20;;;15.60;99.90;;;;;;5071477;28;20039;-76
2023/08/21 03:39:00;;;;;;;0.10;0.10;;;15.50;99.90;;;;;;5039086;28;20040;-76
2023/08/21 03:41:27;;;;;;;0.10;0.10;;;15.50;99.90;;;;;;5047725;28;20438;-77
2023/08/21 03:43:52;;;;;;;0.20;0.20;;;15.50;99.90;;;;;;5041353;28;20049;-76
2023/08/21 03:46:18;;;;;;;0.20;0.20;;;15.50;99.90;;;;;;5069429;28;20044;-77
2023/08/21 03:48:44;;;;;;;0.10;0.10;;;15.50;99.90;;;;;;5069249;28;20415;-76
2023/08/21 03:51:09;;;;;;;0.20;0.20;;;15.50;99.90;;;;;;5070907;28;20052;-77
2023/08/21 03:53:35;;;;;;;0.20;0.20;;;15.40;99.90;;;;;;5051468;28;20472;-77
2023/08/21 03:56:01;;;;;;;0.10;0.10;;;15.50;99.90;;;;;;5054774;28;20466;-76
2023/08/21 03:58:26;;;;;;;0.10;0.10;;;15.40;99.90;;;;;;5053358;28;20048;-76
2023/08/21 04:00:53;;;;;;;0.20;0.20;;;15.40;99.90;;;;;;5050296;28;20108;-77
2023/08/21 04:03:19;;;;;;;0.20;0.20;;;15.40;99.90;;;;;;5051018;28;20055;-76
2023/08/21 04:05:45;;;;;;;0.20;0.20;;;15.40;99.90;;;;;;5051289;28;20420;-77
2023/08/21 04:08:10;;;;;;;0.20;0.20;;;15.40;99.90;;;;;;5051717;28;20044;-78
2023/08/21 04:10:36;;;;;;;0.20;0.20;;;15.40;99.90;;;;;;5069375;28;20072;-77
2023/08/21 04:13:02;;;;;;;0.15;0.15;;;15.40;99.90;;;;;;5069236;28;20066;-77
2023/08/21 04:15:28;;;;;;;0.20;0.20;;;15.40;99.90;;;;;;5071173;28;20100;-77
2023/08/21 04:17:53;;;;;;;0.10;0.10;;;15.40;99.90;;;;;;5050602;28;20476;-77
2023/08/21 04:20:22;;;;;;;0.20;0.20;;;15.40;99.90;;;;;;5065463;28;20036;-76
2023/08/21 04:22:49;;;;;;;0.10;0.10;;;15.40;99.90;;;;;;5049095;28;20075;-77
2023/08/21 04:25:14;;;;;;;0.20;0.20;;;15.40;99.90;;;;;;5048814;28;20036;-77
2023/08/21 04:27:40;;;;;;;0.20;0.20;;;15.40;99.90;;;;;;5049659;28;20075;-76
2023/08/21 04:30:06;;;;;;;0.20;0.20;;;15.40;99.90;;;;;;5051280;28;20028;-77
2023/08/21 04:32:32;;;;;;;0.20;0.20;;;15.40;99.90;;;;;;5052762;28;20346;-77
2023/08/21 04:34:58;;;;;;;0.20;0.20;;;15.40;99.90;;;;;;5071000;28;20440;-77
2023/08/21 04:37:23;;;;;;;0.20;0.20;;;15.30;99.90;;;;;;5072004;28;20040;-77
2023/08/21 04:39:53;;;;;;;0.20;0.20;;;15.40;99.90;;;;;;5070957;28;20500;-77
2023/08/21 04:42:19;;;;;;;0.10;0.10;;;15.40;99.90;;;;;;5053039;28;20116;-77
2023/08/21 04:44:45;;;;;;;0.20;0.20;;;15.40;99.90;;;;;;5047742;28;20123;-77
2023/08/21 04:47:21;;;;;;;0.20;0.20;;;15.40;99.90;;;;;;5033846;28;20111;-77
2023/08/21 04:49:51;;;;;;;0.20;0.20;;;15.40;99.90;;;;;;5051812;28;20041;-77
2023/08/21 04:52:17;;;;;;;0.10;0.10;;;15.40;99.90;;;;;;5053682;28;20060;-76
2023/08/21 04:54:43;;;;;;;0.20;0.20;;;15.40;99.90;;;;;;5070869;28;20041;-76
2023/08/21 04:57:08;;;;;;;0.20;0.20;;;15.40;99.90;;;;;;5053113;28;20090;-77
2023/08/21 04:59:35;;;;;;;0.20;0.20;;;15.40;99.90;;;;;;5047423;28;20048;-76
2023/08/21 05:02:02;;;;;;;0.20;0.20;;;15.40;99.90;;;;;;5048262;28;20049;-77
2023/08/21 05:04:27;;;;;;;0.20;0.20;;;15.40;99.90;;;;;;5033171;28;20040;-76
2023/08/21 05:06:53;;;;;;;0.20;0.20;;;15.50;99.90;;;;;;5038630;28;20178;-77
2023/08/21 05:09:19;;;;;;;0.20;0.20;;;15.50;99.90;;;;;;5068378;28;20133;-76
2023/08/21 05:11:44;;;;;;;0.20;0.20;;;15.50;99.90;;;;;;5069937;28;20064;-76
2023/08/21 05:14:10;;;;;;;0.20;0.20;;;15.50;99.90;;;;;;5052833;28;20260;-78
2023/08/21 05:16:36;;;;;;;0.20;0.20;;;15.50;99.90;;;;;;5069517;28;20097;-77
2023/08/21 05:19:01;;;;;;;0.13;0.13;;;15.60;99.90;;;;;;5069519;28;20086;-78
2023/08/21 05:21:27;;;;;;;0.10;0.10;;;15.50;99.90;;;;;;5070683;28;20618;-77
2023/08/21 05:23:53;;;;;;;0.20;0.20;;;15.60;99.90;;;;;;5068561;28;20047;-78
2023/08/21 05:26:22;;;;;;;0.10;0.10;;;15.60;99.90;;;;;;5048488;28;20736;-77
2023/08/21 05:28:47;;;;;;;0.20;0.20;;;15.70;99.90;;;;;;5048379;28;20077;-77
2023/08/21 05:31:13;;;;;;;0.17;0.17;;;15.70;99.90;;;;;;5043567;28;20040;-77
2023/08/21 05:33:39;;;;;;;0.20;0.20;;;15.80;99.90;;;;;;5047125;28;20029;-77
2023/08/21 05:36:05;;;;;;;0.20;0.20;;;15.80;99.90;;;;;;5037409;28;20056;-77
2023/08/21 05:38:31;;;;;;;0.20;0.20;;;15.80;99.90;;;;;;5048342;28;20040;-77
2023/08/21 05:40:58;;;;;;;0.10;0.10;;;15.90;99.90;;;;;;5045667;28;20045;-77
2023/08/21 05:43:24;;;;;;;0.20;0.20;;;15.90;99.90;;;;;;5064675;28;20067;-77
2023/08/21 05:45:49;;;;;;;0.10;0.10;;;15.90;99.90;;;;;;5049798;28;20036;-77
2023/08/21 05:48:16;;;;;;;0.20;0.20;;;16.00;99.90;;;;;;5051792;28;20054;-77
2023/08/21 05:50:42;;;;;;;0.20;0.20;;;16.00;99.90;;;;;;5049281;28;20488;-76
2023/08/21 05:53:08;;;;;;;0.10;0.10;;;16.00;99.90;;;;;;5048371;28;20072;-76
2023/08/21 05:55:37;;;;;;;0.13;0.13;;;16.10;99.90;;;;;;5066069;28;20072;-77
2023/08/21 05:58:03;;;;;;;0.10;0.10;;;16.10;99.90;;;;;;5050220;28;20048;-77
2023/08/21 06:00:28;;;;;;;0.20;0.20;;;16.20;99.90;;;;;;5048466;28;20527;-78
2023/08/21 06:02:54;;;;;;;0.17;0.17;;;16.30;99.90;;;;;;5065407;28;20074;-78
2023/08/21 06:05:20;;;;;;;0.10;0.10;;;16.30;99.90;;;;;;5050425;28;20040;-77
2023/08/21 06:07:46;;;;;;;0.20;0.20;;;16.30;99.90;;;;;;5047446;28;20037;-78
2023/08/21 06:10:12;;;;;;;0.10;0.10;;;16.40;99.90;;;;;;5047900;28;20048;-78
2023/08/21 06:12:41;;;;;;;0.20;0.20;;;16.40;99.90;;;;;;5049714;28;20048;-78
2023/08/21 06:15:11;;;;;;;0.15;0.15;;;16.50;99.90;;;;;;5047669;28;20484;-77
2023/08/21 06:17:38;;;;;;;0.20;0.20;;;16.60;99.90;;;;;;5047470;28;20045;-78
2023/08/21 06:20:13;;;;;;;0.20;0.20;;;16.60;99.90;;;;;;5048145;28;20091;-78
2023/08/21 06:22:39;;;;;;;0.20;0.20;;;16.70;99.90;;;;;;5044542;28;20045;-78
2023/08/21 06:25:05;;;;;;;0.20;0.20;;;16.80;99.90;;;;;;5046751;28;20132;-78
2023/08/21 06:27:31;;;;;;;0.20;0.20;;;16.80;99.90;;;;;;5047878;28;20037;-77
2023/08/21 06:29:57;;;;;;;0.20;0.20;;;16.90;99.90;;;;;;5044394;28;20255;-78
2023/08/21 06:32:22;;;;;;;0.20;0.20;;;17.00;99.90;;;;;;5046198;28;20405;-78
2023/08/21 06:34:48;;;;;;;0.20;0.20;;;17.00;99.90;;;;;;5046952;28;20041;-78
2023/08/21 06:37:14;;;;;;;0.20;0.20;;;17.10;99.90;;;;;;5049432;28;20041;-78
2023/08/21 06:39:40;;;;;;;0.10;0.10;;;17.20;99.90;;;;;;5048304;28;20040;-78
2023/08/21 06:42:05;;;;;;;0.10;0.10;;;17.20;99.90;;;;;;5043702;28;20057;-78
2023/08/21 06:44:31;;;;;;;0.10;0.10;;;17.30;99.90;;;;;;5027907;28;20524;-79
2023/08/21 06:46:57;;;;;;;0.20;0.20;;;17.40;99.90;;;;;;5046358;28;20064;-78
2023/08/21 06:49:23;;;;;;;0.10;0.10;;;17.50;99.90;;;;;;5047945;28;20481;-78
2023/08/21 06:51:49;;;;;;;0.10;0.10;;;17.60;99.90;;;;;;5047249;28;20041;-78
2023/08/21 06:54:15;;;;;;;0.17;0.17;;;17.60;99.90;;;;;;5045312;28;20052;-78
2023/08/21 06:56:40;;;;;;;0.17;0.17;;;17.70;99.90;;;;;;5040462;28;20049;-78
2023/08/21 06:59:06;;;;;;;0.20;0.20;;;17.80;99.90;;;;;;5041543;28;20449;-77
2023/08/21 07:01:32;;;;;;;0.13;0.13;;;17.90;99.90;;;;;;5040159;28;20041;-78
2023/08/21 07:03:58;;;;;;;0.20;0.20;;;18.00;99.90;;;;;;5040016;28;20435;-78
2023/08/21 07:06:23;;;;;;;0.13;0.13;;;18.10;99.90;;;;;;5048190;28;20040;-77
2023/08/21 07:08:49;;;;;;;0.20;0.20;;;18.20;99.90;;;;;;5042874;28;20425;-78
2023/08/21 07:11:17;;;;;;;0.15;0.15;;;18.20;99.90;;;;;;5034832;28;20048;-77
2023/08/21 07:13:42;;;;;;;0.17;0.17;;;18.30;99.90;;;;;;5049977;28;20454;-78
2023/08/21 07:16:08;;;;;;;0.20;0.20;;;18.40;99.90;;;;;;5068845;28;20059;-78
2023/08/21 07:18:35;;;;;;;0.20;0.20;;;18.40;99.90;;;;;;5055380;28;20455;-78
2023/08/21 07:21:01;;;;;;;0.20;0.20;;;18.50;99.90;;;;;;5054772;28;20502;-78
2023/08/21 07:23:27;;;;;;;0.20;0.20;;;18.60;99.90;;;;;;5069796;28;20043;-78
2023/08/21 07:25:53;;;;;;;0.20;0.20;;;18.70;99.90;;;;;;5070674;28;20036;-78
2023/08/21 07:28:18;;;;;;;0.20;0.20;;;18.70;99.90;;;;;;5069606;28;20047;-78
2023/08/21 07:30:44;;;;;;;0.20;0.20;;;18.80;99.90;;;;;;5045196;28;20040;-78
2023/08/21 07:33:10;;;;;;;0.15;0.15;;;18.90;99.90;;;;;;5050363;28;20041;-78
2023/08/21 07:35:36;;;;;;;0.20;0.20;;;18.90;99.90;;;;;;5056018;28;20060;-78
2023/08/21 07:38:02;;;;;;;0.20;0.20;;;19.00;99.90;;;;;;5071879;28;20112;-78
2023/08/21 07:40:27;;;;;;;0.20;0.20;;;19.10;99.90;;;;;;5050167;28;20055;-78
2023/08/21 07:42:53;;;;;;;0.20;0.20;;;19.10;99.90;;;;;;5052088;28;20159;-78
2023/08/21 07:45:19;;;;;;;0.20;0.20;;;19.20;99.90;;;;;;5053219;28;20045;-78
2023/08/21 07:47:45;;;;;;;0.20;0.20;;;19.20;99.90;;;;;;5072241;28;20366;-78
2023/08/21 07:50:10;;;;;;;0.20;0.20;;;19.30;99.90;;;;;;5069788;28;20076;-77
2023/08/21 07:52:36;;;;;;;0.20;0.20;;;19.30;99.90;;;;;;5053775;28;20077;-78
2023/08/21 07:55:03;;;;;;;0.15;0.15;;;19.40;99.90;;;;;;5052159;28;20060;-78
2023/08/21 07:57:30;;;;;;;0.20;0.20;;;19.40;99.90;;;;;;5070386;28;20051;-77
2023/08/21 07:59:56;;;;;;;0.20;0.20;;;19.50;99.90;;;;;;5041213;28;20049;-77
2023/08/21 08:02:22;;;;;;;0.17;0.17;;;19.60;99.90;;;;;;5051036;28;20279;-78
2023/08/21 08:04:48;;;;;;;0.20;0.20;;;19.60;99.90;;;;;;5048861;28;20048;-77
2023/08/21 08:07:14;;;;;;;0.20;0.20;;;19.70;99.90;;;;;;5053700;28;20534;-77
2023/08/21 08:09:39;;;;;;;0.20;0.20;;;19.70;99.90;;;;;;5040443;28;20047;-78
2023/08/21 08:12:06;;;;;;;0.20;0.20;;;19.80;99.90;;;;;;5033618;28;20048;-78
2023/08/21 08:14:32;;;;;;;0.20;0.20;;;19.90;99.90;;;;;;5050726;28;20049;-78
2023/08/21 08:16:57;;;;;;;0.10;0.10;;;19.90;99.90;;;;;;5050177;28;20137;-77
2023/08/21 08:19:23;;;;;;;0.20;0.20;;;20.00;99.90;;;;;;5068308;28;20457;-78
2023/08/21 08:21:49;;;;;;;0.20;0.20;;;20.10;99.90;;;;;;5066541;28;20039;-77
2023/08/21 08:24:14;;;;;;;0.20;0.20;;;20.10;99.90;;;;;;5050988;28;20481;-78
2023/08/21 08:26:42;;;;;;;0.20;0.20;;;20.20;99.90;;;;;;5052011;28;20135;-78
2023/08/21 08:29:08;;;;;;;0.20;0.20;;;20.30;99.90;;;;;;5049200;28;20045;-77
2023/08/21 08:31:33;;;;;;;0.20;0.20;;;20.40;99.90;;;;;;5045089;28;20612;-77
2023/08/21 08:33:59;;;;;;;0.20;0.20;;;20.40;99.90;;;;;;5041777;28;20385;-77
2023/08/21 08:36:25;;;;;;;0.20;0.20;;;20.50;99.90;;;;;;5039362;28;20163;-77
2023/08/21 08:38:50;;;;;;;0.20;0.20;;;20.50;99.90;;;;;;5041043;28;20118;-77
2023/08/21 08:41:39;;;;;;;0.20;0.20;;;20.60;99.90;;;;;;5050259;28;20052;-77
2023/08/21 08:44:06;;;;;;;0.20;0.20;;;20.70;99.90;;;;;;5058770;28;20456;-77
2023/08/21 08:46:31;;;;;;;0.20;0.20;;;20.70;99.90;;;;;;5065859;28;20110;-77
2023/08/21 08:48:59;;;;;;;0.20;0.20;;;20.80;99.90;;;;;;5064784;28;20551;-77
2023/08/21 08:51:28;;;;;;;0.10;0.10;;;20.80;99.90;;;;;;5067544;28;20151;-77
2023/08/21 08:53:55;;;;;;;0.20;0.20;;;20.90;99.90;;;;;;5042999;28;20416;-77
2023/08/21 08:56:21;;;;;;;0.20;0.20;;;21.00;99.90;;;;;;5064167;28;20059;-77
2023/08/21 08:58:46;;;;;;;0.20;0.20;;;21.00;99.90;;;;;;5057241;28;20479;-77
2023/08/21 09:01:13;;;;;;;0.20;0.20;;;21.10;99.90;;;;;;5038484;28;20041;-77
2023/08/21 09:03:38;;;;;;;0.20;0.20;;;21.20;99.90;;;;;;5041482;28;20041;-77
2023/08/21 09:06:04;;;;;;;0.20;0.20;;;21.20;99.90;;;;;;5038380;28;20046;-77
2023/08/21 09:08:30;;;;;;;0.20;0.20;;;21.30;99.90;;;;;;5059990;28;21136;-77
2023/08/21 09:11:00;;;;;;;0.20;0.20;;;21.40;99.90;;;;;;5041139;28;20057;-77
2023/08/21 09:13:26;;;;;;;0.20;0.20;;;21.40;99.90;;;;;;5060802;28;20079;-76
2023/08/21 09:15:55;;;;;;;0.20;0.20;;;21.40;99.90;;;;;;5060880;28;20102;-76
2023/08/21 09:18:21;;;;;;;0.20;0.20;;;21.50;99.90;;;;;;5042057;28;20044;-76
2023/08/21 09:20:48;;;;;;;0.20;0.20;;;21.60;99.90;;;;;;5042953;28;20040;-77
2023/08/21 09:23:18;;;;;;;0.20;0.20;;;21.60;99.90;;;;;;5040868;28;20041;-76
2023/08/21 09:25:48;;;;;;;0.20;0.20;;;21.70;99.90;;;;;;5046925;28;20553;-77
2023/08/21 09:28:19;;;;;;;0.20;0.20;;;21.70;99.90;;;;;;5047439;28;20123;-77
2023/08/21 09:30:53;;;;;;;0.20;0.20;;;21.80;99.90;;;;;;5048933;28;20053;-76
2023/08/21 09:33:20;;;;;;;0.20;0.20;;;21.90;99.90;;;;;;5067558;28;20111;-76
2023/08/21 09:35:47;;;;;;;0.20;0.20;;;22.00;99.90;;;;;;5048687;28;20054;-76
2023/08/21 09:38:14;;;;;;;0.20;0.20;;;22.00;99.90;;;;;;5062713;28;20037;-76
2023/08/21 09:40:41;;;;;;;0.20;0.20;;;22.10;99.90;;;;;;5051875;28;20075;-77
2023/08/21 09:43:11;;;;;;;0.20;0.20;;;22.10;99.90;;;;;;5070653;28;20036;-76
2023/08/21 09:45:37;;;;;;;0.20;0.20;;;22.20;99.90;;;;;;5041629;28;20052;-76
2023/08/21 09:48:04;;;;;;;0.20;0.20;;;22.20;99.90;;;;;;5032676;28;20091;-76
2023/08/21 09:50:30;;;;;;;0.20;0.20;;;22.30;99.90;;;;;;5063242;28;20094;-76
2023/08/21 09:52:57;;;;;;;0.20;0.20;;;22.30;99.90;;;;;;5070659;28;20036;-76
2023/08/21 09:55:26;;;;;;;0.20;0.20;;;22.40;99.90;;;;;;5052441;28;20076;-76
2023/08/21 09:57:58;;;;;;;0.20;0.20;;;22.50;99.90;;;;;;5069784;28;20131;-76
2023/08/21 10:00:37;;;;;;;0.20;0.20;;;22.50;99.90;;;;;;5051106;28;20377;-77
2023/08/21 10:03:04;;;;;;;0.20;0.20;;;22.60;99.90;;;;;;5059522;28;20041;-77
2023/08/21 10:05:32;;;;;;;0.20;0.20;;;22.60;99.90;;;;;;5050988;28;20044;-76
2023/08/21 10:08:02;;;;;;;0.20;0.20;;;22.80;99.90;;;;;;5070498;28;20076;-76
2023/08/21 10:10:31;;;;;;;0.20;0.20;;;22.80;99.90;;;;;;5051146;28;20041;-76
2023/08/21 10:12:56;;;;;;;0.20;0.20;;;22.90;99.90;;;;;;5051946;28;20045;-77
2023/08/21 10:15:22;;;;;;;0.20;0.20;;;22.90;99.90;;;;;;5050455;28;20079;-76
2023/08/21 10:17:48;;;;;;;0.20;0.20;;;23.00;99.90;;;;;;5050745;28;20040;-77
2023/08/21 10:20:24;;;;;;;0.20;0.20;;;23.10;99.90;;;;;;5056364;28;20048;-77
2023/08/21 10:22:57;;;;;;;0.20;0.20;;;23.20;99.90;;;;;;5039780;28;20412;-77
2023/08/21 10:25:26;;;;;;;0.20;0.20;;;23.20;99.90;;;;;;5042014;28;20037;-77
2023/08/21 10:27:57;;;;;;;0.20;0.20;;;23.30;99.90;;;;;;5039913;28;20045;-77
2023/08/21 10:30:26;;;;;;;;;;;23.40;99.90;;;;;;5039923;28;20041;-77
2023/08/21 10:32:54;;;;;;;0.20;0.20;;;23.40;99.90;;;;;;5039376;28;20047;-77
2023/08/21 10:35:22;;;;;;;0.20;0.20;;;23.50;99.90;;;;;;5062308;28;20056;-77
2023/08/21 10:38:07;;;;;;;0.20;0.20;;;23.50;99.90;;;;;;5055702;28;20144;-77
2023/08/21 10:40:34;;;;;;;0.20;0.20;;;23.60;99.90;;;;;;5057846;28;20045;-76
2023/08/21 10:43:00;;;;;;;0.20;0.20;;;23.70;99.90;;;;;;5043627;28;20131;-77
2023/08/21 10:45:26;;;;;;;0.20;0.20;;;23.70;99.90;;;;;;5058689;28;20398;-77
2023/08/21 10:47:52;;;;;;;0.20;0.20;;;23.80;99.90;;;;;;5067550;28;20072;-76
2023/08/21 10:50:17;;;;;;;0.20;0.20;;;23.80;99.90;;;;;;5052795;28;20075;-77
2023/08/21 10:52:47;;;;;;;0.20;0.20;;;23.90;99.90;;;;;;5067266;28;20102;-77
2023/08/21 10:55:15;;;;;;;0.20;0.20;;;24.00;99.90;;;;;;5068247;28;20055;-77
2023/08/21 10:57:41;;;;;;;0.20;0.20;;;24.00;99.90;;;;;;5066611;28;20043;-77
2023/08/21 11:00:12;;;;;;;0.20;0.20;;;24.00;99.90;;;;;;5069891;28;20147;-76
2023/08/21 11:02:39;;;;;;;0.20;0.20;;;24.10;99.90;;;;;;5049785;28;20051;-77
2023/08/21 11:05:06;;;;;;;0.20;0.20;;;24.20;99.90;;;;;;5054550;28;20051;-77
2023/08/21 11:07:57;;;;;;;0.20;0.20;;;24.20;99.90;;;;;;5072564;28;20041;-77
2023/08/21 11:10:24;;;;;;;0.20;0.20;;;24.30;99.90;;;;;;5063318;28;20221;-77
2023/08/21 11:12:55;;;;;;;0.20;0.20;;;24.40;99.90;;;;;;5054064;28;20063;-77
2023/08/21 11:15:21;;;;;;;0.20;0.20;;;24.50;99.90;;;;;;5047620;28;20059;-77
2023/08/21 11:18:13;;;;;;;0.20;0.20;;;24.60;99.90;;;;;;5071307;28;20037;-77
2023/08/21 11:20:38;;;;;;;0.20;0.20;;;24.70;99.90;;;;;;5048098;28;20068;-77
2023/08/21 11:23:09;;;;;;;0.20;0.20;;;24.70;99.90;;;;;;5044583;28;20481;-76
2023/08/21 11:25:38;;;;;;;0.20;0.20;;;24.80;99.90;;;;;;5051458;28;20044;-78
2023/08/21 11:28:05;;;;;;;0.20;0.20;;;24.90;99.90;;;;;;5073451;28;20476;-77
2023/08/21 11:30:34;;;;;;;0.82;0.82;;;24.90;99.90;;;;;;5065580;28;20413;-76
2023/08/21 11:33:11;;;;;;;0.20;0.20;;;25.00;99.90;;;;;;5046829;28;20469;-77
2023/08/21 11:35:38;;;;;;;0.20;0.20;;;25.10;99.90;;;;;;5072594;28;20106;-76
2023/08/21 11:38:04;;;;;;;0.20;0.20;;;25.10;99.90;;;;;;5066345;28;20037;-76
2023/08/21 11:40:30;;;;;;;0.20;0.20;;;25.10;99.90;;;;;;5037611;28;20045;-76
2023/08/21 11:43:03;;;;;;;0.20;0.20;;;25.10;99.90;;;;;;5054150;28;20045;-76
2023/08/21 11:45:29;;;;;;;0.20;0.20;;;25.30;99.90;;;;;;5056836;28;20424;-77
2023/08/21 11:47:58;;;;;;;0.20;0.20;;;25.30;99.90;;;;;;5071029;28;20047;-77
2023/08/21 11:50:25;;;;;;;0.20;0.20;;;25.40;99.90;;;;;;5070255;28;20037;-77
2023/08/21 11:52:52;;;;;;;0.20;0.20;;;25.50;99.90;;;;;;5054497;28;20051;-77
2023/08/21 11:55:18;;;;;;;0.20;0.20;;;25.60;99.90;;;;;;5072799;28;20043;-76
2023/08/21 11:57:49;;;;;;;0.20;0.20;;;25.80;99.90;;;;;;5072105;28;20047;-77
2023/08/21 12:00:18;;;;;;;0.20;0.20;;;25.90;99.90;;;;;;5071089;28;20044;-77
2023/08/21 12:03:06;;;;;;;0.20;0.20;;;26.10;99.90;;;;;;5044874;28;20357;-77
2023/08/21 12:05:33;;;;;;;0.20;0.20;;;26.20;99.90;;;;;;5072125;28;20041;-77
2023/08/21 12:07:58;;;;;;;0.20;0.20;;;26.40;99.90;;;;;;5055176;28;20048;-77
2023/08/21 12:10:25;;;;;;;0.20;0.20;;;26.50;99.90;;;;;;5054408;28;20044;-77
2023/08/21 12:12:51;;;;;;;0.20;0.20;;;26.60;99.90;;;;;;5054375;28;20128;-77
2023/08/21 12:15:17;;;;;;;0.20;0.20;;;26.70;99.90;;;;;;5053891;28;20572;-76
2023/08/21 12:17:42;;;;;;;0.20;0.20;;;26.70;99.90;;;;;;5050409;28;20128;-77
2023/08/21 12:20:10;;;;;;;0.20;0.20;;;26.70;99.90;;;;;;5066690;28;20131;-76
2023/08/21 12:22:40;;;;;;;0.20;0.20;;;26.50;99.90;;;;;;5052569;28;20099;-76
2023/08/21 12:25:06;;;;;;;0.30;0.30;;;26.40;99.90;;;;;;5048801;28;20064;-76
2023/08/21 12:27:32;;;;;;;0.20;0.20;;;26.30;99.90;;;;;;5071421;28;20517;-76
2023/08/21 12:29:57;;;;;;;0.20;0.20;;;26.10;99.90;;;;;;5052830;28;20098;-77
2023/08/21 12:32:23;;;;;;;0.20;0.20;;;26.00;99.90;;;;;;5064395;28;20049;-76
2023/08/21 12:34:49;;;;;;;0.20;0.20;;;25.90;99.90;;;;;;5037467;28;20037;-76
2023/08/21 12:37:14;;;;;;;0.20;0.20;;;25.80;99.90;;;;;;5037577;28;20045;-76
2023/08/21 12:39:40;;;;;;;0.20;0.20;;;25.90;99.90;;;;;;5035253;28;20037;-76
2023/08/21 12:42:07;;;;;;;0.20;0.20;;;25.90;99.90;;;;;;5048056;28;20041;-76
2023/08/21 12:44:36;;;;;;;0.20;0.20;;;25.90;99.90;;;;;;5054139;28;20118;-76
2023/08/21 12:47:02;;;;;;;0.20;0.20;;;25.90;99.90;;;;;;5072352;28;20052;-76